createdAt,value
2022-09-17T00:02:33.185Z,99990.66
2022-09-17T00:07:35.111Z,99972.72
2022-09-17T00:12:33.438Z,99972.06
2022-09-17T00:17:32.658Z,99990.78
2022-09-17T00:22:30.194Z,99998.28
2022-09-17T00:27:28.631Z,100012.84
2022-09-17T00:32:27.589Z,99985.47
2022-09-17T00:37:25.795Z,99991.34
2022-09-17T00:42:24.318Z,99975.44
2022-09-17T00:47:28.579Z,100009.00
2022-09-17T00:52:31.815Z,99966.94
2022-09-17T00:57:31.091Z,99961.13
2022-09-17T01:02:33.780Z,99955.53
2022-09-17T01:08:05.995Z,99993.03
2022-09-17T01:13:20.516Z,99993.31
2022-09-17T01:18:27.683Z,99989.59
2022-09-17T01:24:05.816Z,99947.56
2022-09-17T01:29:26.425Z,99987.47
2022-09-17T01:34:34.698Z,99948.06
2022-09-17T01:39:53.603Z,99984.22
2022-09-17T01:45:05.921Z,99983.88
2022-09-17T01:50:18.518Z,99974.91
2022-09-17T01:55:17.997Z,99923.78
2022-09-17T02:00:26.551Z,99926.28
2022-09-17T02:05:55.694Z,99945.44
2022-09-17T02:11:05.567Z,99917.69
2022-09-17T02:16:13.402Z,99946.03
2022-09-17T02:21:41.383Z,99919.69
2022-09-17T02:26:47.769Z,99921.50
2022-09-17T02:31:46.508Z,99919.75
2022-09-17T02:36:45.454Z,99947.41
2022-09-17T02:41:59.044Z,99942.63
2022-09-17T02:47:16.426Z,99928.13
2022-09-17T02:52:20.067Z,99933.13
2022-09-17T02:57:25.904Z,99903.28
2022-09-17T03:02:34.941Z,99882.66
2022-09-17T03:07:35.566Z,99866.31
2022-09-17T03:12:40.941Z,99866.22
2022-09-17T03:17:39.382Z,99879.94
2022-09-17T03:22:42.451Z,99872.13
2022-09-17T03:27:40.774Z,99856.97
2022-09-17T03:32:40.108Z,99853.53
2022-09-17T03:37:43.437Z,99854.53
2022-09-17T03:42:43.651Z,99801.97
2022-09-17T03:47:42.295Z,99801.09
2022-09-17T03:52:40.280Z,99823.53
2022-09-17T03:57:39.449Z,99810.06
2022-09-17T04:02:38.083Z,99837.13
2022-09-17T04:07:43.455Z,99836.31
2022-09-17T04:12:41.376Z,99798.16
2022-09-17T04:17:39.793Z,99777.09
2022-09-17T04:22:41.106Z,99784.34
2022-09-17T04:27:39.181Z,99804.97
2022-09-17T04:32:44.055Z,99811.56
2022-09-17T04:37:42.283Z,99788.75
2022-09-17T04:42:49.268Z,99820.13
2022-09-17T04:47:49.507Z,99804.22
2022-09-17T04:52:48.104Z,99771.13
2022-09-17T04:57:57.474Z,99809.78
2022-09-17T05:02:58.804Z,99804.28
2022-09-17T05:08:00.094Z,99809.66
2022-09-17T05:12:58.439Z,99791.22
2022-09-17T05:17:59.081Z,99782.28
2022-09-17T05:22:59.414Z,99805.59
2022-09-17T05:28:01.399Z,99804.91
2022-09-17T05:33:00.856Z,99793.19
2022-09-17T05:38:02.041Z,99811.84
2022-09-17T05:43:03.311Z,99775.69
2022-09-17T05:48:02.369Z,99784.94
2022-09-17T05:53:10.814Z,99791.66
2022-09-17T05:58:19.029Z,99779.47
2022-09-17T06:03:25.213Z,99783.56
2022-09-17T06:08:23.755Z,99774.13
2022-09-17T06:13:21.723Z,99808.28
2022-09-17T06:18:20.637Z,99785.25
2022-09-17T06:23:21.581Z,99766.00
2022-09-17T06:28:19.055Z,99767.38
2022-09-17T06:33:18.550Z,99741.31
2022-09-17T06:38:17.023Z,99754.09
2022-09-17T06:43:17.423Z,99774.00
2022-09-17T06:48:15.301Z,99748.00
2022-09-17T06:53:13.502Z,99819.97
2022-09-17T06:58:11.004Z,99803.22
2022-09-17T07:03:12.784Z,99815.13
2022-09-17T07:08:12.847Z,99754.06
2022-09-17T07:13:13.212Z,99808.81
2022-09-17T07:18:11.530Z,99773.56
2022-09-17T07:23:10.116Z,99780.63
2022-09-17T07:28:11.649Z,99803.16
2022-09-17T07:33:11.503Z,99808.16
2022-09-17T07:38:09.617Z,99823.91
2022-09-17T07:43:09.122Z,99786.75
2022-09-17T07:48:06.993Z,99770.03
2022-09-17T07:53:07.166Z,99755.03
2022-09-17T07:58:05.316Z,99759.59
2022-09-17T08:03:03.540Z,99807.44
2022-09-17T08:08:03.971Z,99779.81
2022-09-17T08:13:02.160Z,99799.13
2022-09-17T08:18:02.785Z,99801.34
2022-09-17T08:23:01.386Z,99793.09
2022-09-17T08:28:03.149Z,99795.88
2022-09-17T08:33:02.417Z,99781.41
2022-09-17T08:38:00.864Z,99799.09
2022-09-17T08:43:08.648Z,99789.94
2022-09-17T08:48:12.072Z,99786.78
2022-09-17T08:53:37.846Z,99787.88
2022-09-17T08:59:04.904Z,99760.72
2022-09-17T09:04:38.847Z,99797.88
2022-09-17T09:09:44.885Z,99786.41
2022-09-17T09:15:06.293Z,99825.66
2022-09-17T09:20:05.536Z,99796.50
2022-09-17T09:25:21.613Z,99797.31
2022-09-17T09:30:23.808Z,99787.16
2022-09-17T09:35:31.883Z,99787.22
2022-09-17T09:40:55.805Z,99805.22
2022-09-17T09:46:01.047Z,99808.16
2022-09-17T09:51:22.159Z,99776.47
2022-09-17T09:56:42.099Z,99813.59
2022-09-17T10:01:46.267Z,99774.69
2022-09-17T10:06:44.507Z,99777.69
2022-09-17T10:11:42.971Z,99769.06
2022-09-17T10:16:41.402Z,99768.88
2022-09-17T10:21:41.659Z,99804.69
2022-09-17T10:26:40.532Z,99775.72
2022-09-17T10:31:54.202Z,99803.41
2022-09-17T10:36:53.183Z,99767.22
2022-09-17T10:41:55.633Z,99792.72
2022-09-17T10:46:54.004Z,99790.66
2022-09-17T10:51:52.520Z,99788.41
2022-09-17T10:56:55.094Z,99808.69
2022-09-17T11:02:09.898Z,99813.66
2022-09-17T11:07:23.049Z,99834.63
2022-09-17T11:12:32.439Z,99827.53
2022-09-17T11:17:57.854Z,99818.97
2022-09-17T11:23:22.950Z,99833.97
2022-09-17T11:28:43.256Z,99856.06
2022-09-17T11:33:40.928Z,99856.44
2022-09-17T11:38:50.212Z,99879.41
2022-09-17T11:44:25.883Z,99915.03
2022-09-17T11:49:26.333Z,99905.97
2022-09-17T11:54:43.902Z,99862.75
2022-09-17T11:59:52.224Z,99912.66
2022-09-17T12:05:00.402Z,99938.50
2022-09-17T12:10:26.888Z,99929.66
2022-09-17T12:15:28.441Z,99929.00
2022-09-17T12:20:36.011Z,99890.44
2022-09-17T12:25:43.402Z,99849.91
2022-09-17T12:30:47.327Z,99837.28
2022-09-17T12:36:05.725Z,99872.97
2022-09-17T12:41:27.684Z,99851.41
2022-09-17T12:47:08.405Z,99891.22
2022-09-17T12:52:22.191Z,99892.63
2022-09-17T12:57:42.146Z,99857.44
2022-09-17T13:02:52.181Z,99823.78
2022-09-17T13:08:11.908Z,99822.19
2022-09-17T13:13:32.865Z,99815.91
2022-09-17T13:24:17.780Z,99740.75
2022-09-17T13:29:47.157Z,99778.56
2022-09-17T13:34:45.272Z,99734.94
2022-09-17T13:39:45.431Z,99708.56
2022-09-17T13:44:48.219Z,99707.63
2022-09-17T13:50:12.952Z,99705.66
2022-09-17T13:55:35.223Z,99682.69
2022-09-17T14:01:26.407Z,99701.22
2022-09-17T14:06:25.192Z,99687.25
2022-09-17T14:11:27.770Z,99663.69
2022-09-17T14:16:37.622Z,99649.03
2022-09-17T14:21:36.537Z,99627.16
2022-09-17T14:26:46.774Z,99599.41
2022-09-17T14:31:47.351Z,99565.06
2022-09-17T14:36:46.176Z,99580.38
2022-09-17T14:41:44.700Z,99591.91
2022-09-17T14:46:59.273Z,99639.13
2022-09-17T14:52:06.650Z,99630.53
2022-09-17T14:57:31.977Z,99680.69
2022-09-17T15:02:42.078Z,99667.31
2022-09-17T15:07:45.183Z,99659.03
2022-09-17T15:12:47.068Z,99707.44
2022-09-17T15:17:45.398Z,99688.00
2022-09-17T15:22:46.259Z,99669.19
2022-09-17T15:27:48.582Z,99674.69
2022-09-17T15:32:54.213Z,99673.94
2022-09-17T15:38:23.551Z,99699.03
2022-09-17T15:43:34.205Z,99696.47
2022-09-17T15:48:40.487Z,99673.38
2022-09-17T15:53:40.858Z,99652.66
2022-09-17T15:58:45.079Z,99640.19
2022-09-17T16:03:44.167Z,99666.59
2022-09-17T16:08:45.130Z,99628.94
2022-09-17T16:13:55.643Z,99653.84
2022-09-17T16:18:53.523Z,99617.94
2022-09-17T16:23:58.204Z,99604.25
2022-09-17T16:29:02.615Z,99602.56
2022-09-17T16:34:03.114Z,99619.28
2022-09-17T16:39:01.846Z,99639.44
2022-09-17T16:44:02.844Z,99599.91
2022-09-17T16:49:15.495Z,99595.97
2022-09-17T16:54:17.245Z,99629.25
2022-09-17T16:59:16.357Z,99584.84
2022-09-17T17:04:18.158Z,99636.63
2022-09-17T17:09:20.008Z,99620.63
2022-09-17T17:14:20.340Z,99624.75
2022-09-17T17:19:22.190Z,99613.41
2022-09-17T17:24:22.136Z,99613.91
2022-09-17T17:29:26.322Z,99595.28
2022-09-17T17:34:24.785Z,99592.28
2022-09-17T17:39:25.223Z,99542.66
2022-09-17T17:44:28.907Z,99511.75
2022-09-17T17:49:30.479Z,99535.69
2022-09-17T17:54:40.493Z,99547.50
2022-09-17T17:59:42.207Z,99573.31
2022-09-17T18:04:43.697Z,99581.19
2022-09-17T18:09:47.664Z,99578.13
2022-09-17T18:15:02.424Z,99586.16
2022-09-17T18:20:05.303Z,99627.63
2022-09-17T18:25:07.678Z,99625.44
2022-09-17T18:30:07.447Z,99586.41
2022-09-17T18:35:07.302Z,99601.84
2022-09-17T18:40:14.477Z,99617.38
2022-09-17T18:45:13.083Z,99611.19
2022-09-17T18:50:14.511Z,99615.69
2022-09-17T18:55:14.541Z,99609.09
2022-09-17T19:00:13.867Z,99638.03
2022-09-17T19:05:16.077Z,99596.25
2022-09-17T19:10:17.168Z,99576.50
2022-09-17T19:15:34.907Z,99585.53
2022-09-17T19:20:49.040Z,99583.38
2022-09-17T19:26:51.202Z,99580.38
2022-09-17T19:31:56.734Z,99534.50
2022-09-17T19:36:54.186Z,99512.91
2022-09-17T19:41:58.333Z,99491.47
2022-09-17T19:46:59.874Z,99501.97
2022-09-17T19:51:57.561Z,99469.38
2022-09-17T19:57:00.368Z,99502.88
2022-09-17T20:01:58.741Z,99485.91
2022-09-17T20:07:04.683Z,99457.34
2022-09-17T20:12:06.208Z,99480.56
2022-09-17T20:17:06.946Z,99460.72
2022-09-17T20:22:10.720Z,99434.69
2022-09-17T20:27:09.841Z,99478.88
2022-09-17T20:32:09.805Z,99453.03
2022-09-17T20:37:13.831Z,99450.34
2022-09-17T20:42:12.088Z,99481.66
2022-09-17T20:47:14.109Z,99516.88
2022-09-17T20:52:16.801Z,99452.63
2022-09-17T20:57:18.413Z,99448.56
2022-09-17T21:02:17.463Z,99485.44
2022-09-17T21:07:19.876Z,99458.59
2022-09-17T21:12:27.522Z,99472.31
2022-09-17T21:17:52.745Z,99447.22
2022-09-17T21:22:54.629Z,99435.75
2022-09-17T21:27:55.585Z,99433.72
2022-09-17T21:33:05.984Z,99411.25
2022-09-17T21:38:04.811Z,99432.44
2022-09-17T21:43:03.417Z,99403.44
2022-09-17T21:48:05.887Z,99410.03
2022-09-17T21:53:04.605Z,99437.56
2022-09-17T21:58:14.978Z,99415.88
2022-09-17T22:03:20.660Z,99382.03
2022-09-17T22:08:27.215Z,99397.38
2022-09-17T22:13:42.078Z,99361.13
2022-09-17T22:18:40.980Z,99412.53
2022-09-17T22:23:42.496Z,99383.09
2022-09-17T22:28:47.959Z,99383.13
2022-09-17T22:33:48.058Z,99359.81
2022-09-17T22:39:44.532Z,99402.19
2022-09-17T22:44:50.282Z,99346.59
2022-09-17T22:49:48.831Z,99365.09
2022-09-17T22:54:48.894Z,99373.03
2022-09-17T22:59:51.722Z,99354.47
2022-09-17T23:04:52.909Z,99383.16
2022-09-17T23:09:52.151Z,99354.81
2022-09-17T23:14:57.276Z,99368.59
2022-09-17T23:19:55.881Z,99346.06
2022-09-17T23:24:54.553Z,99324.06
2022-09-17T23:29:55.157Z,99334.91
2022-09-17T23:34:58.266Z,99351.09
2022-09-17T23:39:58.191Z,99331.22
2022-09-17T23:45:00.591Z,99343.16
2022-09-17T23:50:01.116Z,99381.81
2022-09-17T23:55:03.305Z,99346.59
